createdAt,value
2022-08-22T00:22:23.076Z,15.10
2022-08-22T00:24:59.564Z,15.00
2022-08-22T00:27:35.381Z,15.10
2022-08-22T00:35:27.100Z,15.10
2022-08-22T00:38:05.355Z,15.10
2022-08-22T00:57:27.658Z,14.90
2022-08-22T01:05:41.756Z,14.80
2022-08-22T01:11:03.778Z,14.80
2022-08-22T01:16:37.556Z,14.60
2022-08-22T01:22:37.994Z,14.50
2022-08-22T01:25:53.398Z,14.50
2022-08-22T01:28:54.467Z,14.50
2022-08-22T01:37:25.475Z,14.50
2022-08-22T01:40:27.337Z,14.50
2022-08-22T01:43:10.254Z,14.40
2022-08-22T01:51:22.801Z,14.50
2022-08-22T01:56:34.019Z,14.50
2022-08-22T01:59:10.993Z,14.80
2022-08-22T02:15:02.635Z,14.30
2022-08-22T02:22:56.275Z,14.20
2022-08-22T02:25:32.753Z,14.00
2022-08-22T02:28:11.606Z,14.00
2022-08-22T02:30:50.471Z,13.90
2022-08-22T02:33:29.154Z,14.10
2022-08-22T02:36:05.233Z,14.20
2022-08-22T02:38:43.687Z,13.90
2022-08-22T02:41:23.705Z,13.50
2022-08-22T02:43:58.036Z,14.00
2022-08-22T02:46:34.916Z,13.40
2022-08-22T02:49:12.014Z,13.60
2022-08-22T02:51:51.847Z,14.00
2022-08-22T02:54:29.375Z,13.60
2022-08-22T02:57:05.100Z,13.80
2022-08-22T02:59:43.180Z,13.70
2022-08-22T03:02:30.500Z,13.70
2022-08-22T03:05:03.311Z,13.80
2022-08-22T03:07:42.079Z,13.40
2022-08-22T03:10:23.105Z,14.20
2022-08-22T03:13:03.216Z,13.60
2022-08-22T03:15:39.499Z,13.60
2022-08-22T03:18:27.557Z,13.60
2022-08-22T03:21:02.723Z,13.80
2022-08-22T03:23:45.263Z,13.50
2022-08-22T03:26:25.358Z,13.50
2022-08-22T03:29:00.385Z,13.70
2022-08-22T03:31:32.799Z,13.30
2022-08-22T03:34:20.390Z,13.20
2022-08-22T03:36:59.699Z,13.60
2022-08-22T03:39:52.779Z,13.20
2022-08-22T03:42:53.790Z,13.20
2022-08-22T03:46:01.351Z,13.10
2022-08-22T03:49:00.009Z,12.80
2022-08-22T03:51:43.465Z,13.30
2022-08-22T03:54:46.507Z,12.90
2022-08-22T03:57:47.812Z,13.00
2022-08-22T04:00:40.727Z,13.00
2022-08-22T04:03:49.907Z,13.00
2022-08-22T04:06:48.305Z,13.70
2022-08-22T04:09:54.550Z,13.30
2022-08-22T04:12:48.506Z,13.20
2022-08-22T04:15:42.224Z,12.70
2022-08-22T04:18:43.504Z,12.80
2022-08-22T04:21:41.958Z,12.70
2022-08-22T04:24:44.331Z,12.70
2022-08-22T04:27:24.905Z,12.40
2022-08-22T04:30:00.086Z,12.30
2022-08-22T04:32:36.747Z,12.70
2022-08-22T04:35:13.998Z,12.50
2022-08-22T04:37:52.276Z,12.60
2022-08-22T04:40:27.050Z,12.40
2022-08-22T04:43:03.822Z,12.20
2022-08-22T04:45:39.576Z,12.90
2022-08-22T04:48:16.035Z,12.30
2022-08-22T04:50:54.765Z,12.80
2022-08-22T04:53:48.931Z,12.30
2022-08-22T04:56:27.911Z,12.60
2022-08-22T04:59:02.987Z,9.70
2022-08-22T05:01:44.701Z,12.70
2022-08-22T05:04:19.673Z,12.40
2022-08-22T05:06:56.866Z,12.70
2022-08-22T05:09:32.417Z,12.80
2022-08-22T05:12:09.189Z,12.70
2022-08-22T05:14:50.396Z,12.40
2022-08-22T05:17:28.565Z,13.00
2022-08-22T05:19:59.343Z,12.80
2022-08-22T05:22:35.267Z,12.50
2022-08-22T05:25:09.595Z,13.20
2022-08-22T05:27:47.101Z,13.00
2022-08-22T05:30:23.938Z,12.70
2022-08-22T05:32:57.621Z,12.90
2022-08-22T05:35:36.414Z,13.10
2022-08-22T05:38:11.531Z,13.20
2022-08-22T05:40:43.047Z,13.20
2022-08-22T05:43:15.130Z,13.10
2022-08-22T05:45:49.093Z,13.40
2022-08-22T05:48:23.423Z,13.30
2022-08-22T05:50:59.460Z,13.60
2022-08-22T05:53:36.438Z,13.30
2022-08-22T05:56:10.676Z,14.10
2022-08-22T05:58:51.186Z,14.10
2022-08-22T06:01:31.400Z,14.50
2022-08-22T06:04:17.283Z,14.20
2022-08-22T06:06:57.795Z,14.50
2022-08-22T06:09:37.438Z,14.60
2022-08-22T06:12:18.231Z,14.90
2022-08-22T06:15:02.680Z,14.80
2022-08-22T06:17:45.670Z,15.00
2022-08-22T06:20:22.169Z,15.30
2022-08-22T06:22:55.442Z,14.90
2022-08-22T06:25:32.465Z,15.60
2022-08-22T06:28:06.338Z,15.60
2022-08-22T06:30:38.799Z,16.10
2022-08-22T06:33:12.871Z,16.10
2022-08-22T06:35:58.666Z,17.10
2022-08-22T06:38:33.989Z,16.50
2022-08-22T06:41:10.703Z,16.60
2022-08-22T06:43:44.645Z,16.70
2022-08-22T06:46:17.654Z,16.80
2022-08-22T06:48:48.731Z,17.00
2022-08-22T06:51:20.867Z,17.10
2022-08-22T06:53:59.437Z,17.30
2022-08-22T06:56:37.868Z,17.30
2022-08-22T06:59:12.124Z,17.20
2022-08-22T07:01:51.970Z,17.90
2022-08-22T07:04:26.792Z,17.90
2022-08-22T07:06:58.996Z,18.00
2022-08-22T07:09:31.397Z,18.20
2022-08-22T07:12:06.667Z,18.60
2022-08-22T07:14:44.431Z,18.40
2022-08-22T07:17:21.739Z,19.10
2022-08-22T07:19:59.861Z,18.50
2022-08-22T07:22:33.702Z,18.60
2022-08-22T07:25:07.748Z,19.10
2022-08-22T07:27:50.190Z,19.30
2022-08-22T07:30:27.905Z,19.30
2022-08-22T07:33:26.047Z,19.60
2022-08-22T07:35:59.140Z,19.50
2022-08-22T07:38:42.757Z,19.60
2022-08-22T07:41:17.825Z,19.90
2022-08-22T07:43:55.048Z,19.40
2022-08-22T07:46:32.633Z,20.00
2022-08-22T07:49:12.327Z,20.30
2022-08-22T07:51:46.015Z,20.20
2022-08-22T07:54:18.206Z,20.50
2022-08-22T07:56:57.708Z,20.50
2022-08-22T07:59:31.847Z,20.20
2022-08-22T08:02:04.708Z,20.90
2022-08-22T08:04:40.616Z,20.70
2022-08-22T08:07:13.851Z,20.80
2022-08-22T08:09:47.443Z,21.00
2022-08-22T08:12:18.836Z,21.00
2022-08-22T08:14:56.787Z,21.30
2022-08-22T08:17:32.412Z,21.40
2022-08-22T08:20:08.700Z,21.60
2022-08-22T08:22:40.828Z,21.60
2022-08-22T08:25:11.627Z,21.80
2022-08-22T08:27:55.275Z,22.40
2022-08-22T08:30:39.477Z,22.30
2022-08-22T08:33:25.396Z,22.30
2022-08-22T08:36:03.865Z,23.20
2022-08-22T08:38:39.158Z,22.50
2022-08-22T08:41:41.017Z,22.80
2022-08-22T08:44:26.051Z,23.00
2022-08-22T08:47:24.056Z,23.30
2022-08-22T08:50:07.532Z,23.40
2022-08-22T08:53:00.148Z,23.60
2022-08-22T08:55:43.915Z,23.40
2022-08-22T08:58:34.877Z,23.50
2022-08-22T09:01:28.625Z,23.80
2022-08-22T09:04:31.159Z,23.80
2022-08-22T09:07:26.090Z,23.80
2022-08-22T09:10:16.561Z,24.10
2022-08-22T09:13:12.094Z,24.20
2022-08-22T09:16:04.561Z,24.60
2022-08-22T09:18:51.095Z,24.80
2022-08-22T09:21:52.895Z,24.90
2022-08-22T09:25:07.514Z,24.80
2022-08-22T09:27:41.386Z,24.70
2022-08-22T09:30:15.568Z,24.40
2022-08-22T09:32:55.711Z,24.40
2022-08-22T09:35:33.542Z,24.50
2022-08-22T09:38:33.513Z,24.20
2022-08-22T09:41:21.492Z,24.20
2022-08-22T09:44:05.634Z,24.10
2022-08-22T09:46:43.338Z,24.80
2022-08-22T09:49:19.387Z,24.80
2022-08-22T09:52:15.188Z,24.90
2022-08-22T09:54:52.120Z,24.50
2022-08-22T09:57:33.124Z,25.00
2022-08-22T10:00:22.110Z,24.70
2022-08-22T10:03:02.682Z,23.00
2022-08-22T10:05:43.549Z,24.30
2022-08-22T10:08:39.625Z,24.50
2022-08-22T10:11:31.558Z,24.70
2022-08-22T10:14:05.650Z,25.00
2022-08-22T10:22:23.519Z,25.60
2022-08-22T10:25:04.836Z,25.60
2022-08-22T10:27:54.278Z,26.80
2022-08-22T10:30:28.863Z,26.60
2022-08-22T10:33:06.241Z,27.20
2022-08-22T10:35:41.683Z,26.80
2022-08-22T10:38:18.338Z,26.70
2022-08-22T10:40:56.185Z,26.40
2022-08-22T10:43:40.796Z,25.80
2022-08-22T10:46:18.138Z,25.60
2022-08-22T10:48:51.838Z,25.20
2022-08-22T10:51:44.665Z,25.00
2022-08-22T10:54:41.308Z,26.10
2022-08-22T10:57:21.284Z,26.30
2022-08-22T11:00:04.525Z,27.40
2022-08-22T11:05:43.399Z,26.90
2022-08-22T11:08:42.513Z,28.30
2022-08-22T11:11:42.722Z,28.40
2022-08-22T12:15:43.713Z,27.80
2022-08-22T12:26:58.391Z,27.00
2022-08-22T12:46:21.208Z,26.60
2022-08-22T13:14:59.379Z,27.90
2022-08-22T13:33:10.130Z,28.50
2022-08-22T13:38:26.608Z,28.90
2022-08-22T13:46:07.040Z,29.80
2022-08-22T13:48:51.307Z,30.00
2022-08-22T13:51:28.147Z,29.90
2022-08-22T13:54:11.208Z,29.60
2022-08-22T14:04:56.010Z,28.10
2022-08-22T14:13:07.101Z,29.30
2022-08-22T14:25:58.455Z,29.40
2022-08-22T14:28:33.467Z,29.10
2022-08-22T14:31:13.292Z,28.00
2022-08-22T14:33:49.681Z,28.30
2022-08-22T14:36:25.555Z,28.30
2022-08-22T14:39:01.156Z,28.80
2022-08-22T14:41:52.817Z,28.30
2022-08-22T14:44:31.943Z,28.60
2022-08-22T14:47:32.303Z,28.70
2022-08-22T14:50:01.627Z,28.50
2022-08-22T14:52:40.745Z,27.90
2022-08-22T14:55:20.572Z,29.10
2022-08-22T14:57:55.571Z,28.70
2022-08-22T15:00:36.417Z,28.40
2022-08-22T15:03:17.374Z,29.10
2022-08-22T15:05:52.734Z,28.60
2022-08-22T15:08:29.154Z,28.20
2022-08-22T15:11:12.121Z,28.10
2022-08-22T15:13:51.980Z,28.30
2022-08-22T15:16:26.036Z,27.70
2022-08-22T15:18:59.156Z,27.60
2022-08-22T15:21:31.989Z,27.60
2022-08-22T15:24:08.023Z,26.70
2022-08-22T15:26:43.327Z,27.00
2022-08-22T15:29:23.190Z,27.40
2022-08-22T15:31:54.647Z,27.30
2022-08-22T15:34:33.980Z,26.90
2022-08-22T15:37:32.583Z,26.80
2022-08-22T15:40:12.735Z,26.80
2022-08-22T15:42:47.040Z,26.60
2022-08-22T15:45:34.838Z,27.00
2022-08-22T15:48:11.587Z,25.90
2022-08-22T15:50:59.381Z,26.70
2022-08-22T15:53:34.074Z,26.30
2022-08-22T15:56:24.723Z,26.20
2022-08-22T15:59:12.485Z,25.90
2022-08-22T16:01:49.803Z,25.70
2022-08-22T16:04:38.955Z,25.80
2022-08-22T16:07:29.691Z,25.80
2022-08-22T16:10:02.923Z,25.70
2022-08-22T16:12:37.544Z,25.40
2022-08-22T16:15:10.095Z,25.30
2022-08-22T16:17:53.532Z,24.80
2022-08-22T16:20:56.994Z,24.80
2022-08-22T16:23:29.604Z,24.60
2022-08-22T16:26:19.967Z,24.50
2022-08-22T16:29:06.107Z,24.10
2022-08-22T16:31:42.719Z,24.00
2022-08-22T16:34:28.295Z,23.80
2022-08-22T16:37:28.134Z,23.70
2022-08-22T16:40:21.281Z,24.10
2022-08-22T16:43:12.421Z,23.60
2022-08-22T16:45:45.555Z,23.60
2022-08-22T16:48:27.093Z,23.40
2022-08-22T16:51:13.606Z,23.60
2022-08-22T16:54:05.596Z,23.50
2022-08-22T16:56:50.589Z,23.40
2022-08-22T16:59:46.264Z,23.40
2022-08-22T17:02:36.323Z,23.30
2022-08-22T17:05:22.785Z,23.20
2022-08-22T17:08:25.717Z,23.10
2022-08-22T17:11:04.422Z,23.00
2022-08-22T17:13:58.075Z,23.00
2022-08-22T17:16:41.559Z,22.80
2022-08-22T17:19:27.247Z,22.70
2022-08-22T17:22:01.568Z,23.10
2022-08-22T17:24:39.255Z,22.60
2022-08-22T17:27:18.436Z,23.30
2022-08-22T17:30:03.019Z,22.50
2022-08-22T17:32:44.656Z,22.30
2022-08-22T17:35:27.660Z,22.40
2022-08-22T17:38:08.043Z,22.30
2022-08-22T17:40:49.487Z,22.10
2022-08-22T17:43:32.805Z,22.20
2022-08-22T17:46:38.460Z,21.70
2022-08-22T17:49:19.514Z,22.00
2022-08-22T17:51:57.673Z,21.80
2022-08-22T17:54:34.900Z,21.60
2022-08-22T17:57:10.051Z,21.60
2022-08-22T17:59:49.931Z,21.60
2022-08-22T18:02:29.668Z,21.50
2022-08-22T18:05:06.191Z,21.30
2022-08-22T18:07:48.727Z,21.00
2022-08-22T18:10:30.247Z,21.10
2022-08-22T18:13:07.820Z,21.30
2022-08-22T18:15:47.738Z,20.90
2022-08-22T18:18:30.358Z,20.50
2022-08-22T18:21:05.755Z,20.70
2022-08-22T18:23:40.701Z,20.70
2022-08-22T18:26:24.020Z,20.80
2022-08-22T18:28:59.668Z,21.20
2022-08-22T18:31:39.470Z,20.30
2022-08-22T18:34:23.303Z,20.40
2022-08-22T18:36:58.510Z,20.20
2022-08-22T18:39:32.562Z,19.60
2022-08-22T18:42:10.942Z,20.50
2022-08-22T18:44:42.543Z,19.80
2022-08-22T18:47:19.346Z,19.80
2022-08-22T18:49:55.703Z,19.60
2022-08-22T18:52:41.317Z,19.20
2022-08-22T18:55:28.791Z,19.10
2022-08-22T18:58:30.743Z,19.80
2022-08-22T19:01:13.025Z,19.40
2022-08-22T19:04:20.110Z,19.10
2022-08-22T19:07:28.213Z,19.30
2022-08-22T19:10:15.947Z,18.80
2022-08-22T19:13:07.010Z,19.20
2022-08-22T19:15:52.423Z,18.90
2022-08-22T19:18:40.824Z,18.60
2022-08-22T19:21:35.149Z,18.70
2022-08-22T19:24:13.333Z,18.70
2022-08-22T19:26:47.841Z,18.60
2022-08-22T19:29:56.822Z,18.40
2022-08-22T19:32:59.158Z,18.30
2022-08-22T19:35:31.948Z,18.50
2022-08-22T19:38:05.196Z,18.30
2022-08-22T19:40:58.639Z,18.10
2022-08-22T19:43:37.084Z,18.20
2022-08-22T19:46:10.228Z,18.50
2022-08-22T19:48:50.144Z,18.30
2022-08-22T19:51:31.494Z,18.00
2022-08-22T19:54:16.798Z,19.00
2022-08-22T19:57:07.006Z,17.80
2022-08-22T19:59:51.043Z,17.70
2022-08-22T20:02:35.707Z,17.30
2022-08-22T20:05:25.388Z,17.70
2022-08-22T20:08:06.346Z,17.80
2022-08-22T20:10:49.963Z,17.60
2022-08-22T20:13:26.620Z,17.20
2022-08-22T20:16:13.651Z,17.10
2022-08-22T20:19:19.426Z,17.40
2022-08-22T20:21:58.640Z,17.60
2022-08-22T20:24:39.969Z,18.00
2022-08-22T20:27:17.041Z,17.30
2022-08-22T20:29:55.299Z,17.30
2022-08-22T20:32:27.479Z,17.20
2022-08-22T20:35:02.147Z,17.10
2022-08-22T20:38:03.212Z,17.30
2022-08-22T20:40:56.028Z,17.00
2022-08-22T20:43:35.145Z,17.00
2022-08-22T20:48:48.122Z,16.80
2022-08-22T20:56:52.819Z,16.60
2022-08-22T21:09:55.965Z,16.70
2022-08-22T21:17:35.524Z,16.40
2022-08-22T21:22:49.459Z,16.80
2022-08-22T21:25:19.586Z,16.40
2022-08-22T21:32:58.731Z,16.10
2022-08-22T21:35:32.368Z,16.00
2022-08-22T21:38:03.780Z,15.90
2022-08-22T21:43:08.714Z,15.80
2022-08-22T21:45:46.952Z,15.80
2022-08-22T21:48:45.009Z,15.80
2022-08-22T21:56:52.899Z,15.60
2022-08-22T22:02:37.152Z,15.50
2022-08-22T22:10:16.122Z,15.40
2022-08-22T22:17:52.954Z,15.30
2022-08-22T22:25:40.786Z,15.20
2022-08-22T22:30:46.260Z,15.00
2022-08-22T22:33:16.358Z,15.00
2022-08-22T22:35:47.444Z,15.00
2022-08-22T22:38:23.243Z,14.50
2022-08-22T22:40:53.975Z,14.50
2022-08-22T22:43:26.821Z,14.30
2022-08-22T22:45:56.796Z,15.10
2022-08-22T22:48:26.787Z,14.70
2022-08-22T22:50:57.226Z,14.60
2022-08-22T22:58:42.501Z,14.60
2022-08-22T23:01:15.234Z,14.50
2022-08-22T23:06:18.068Z,14.50
2022-08-22T23:18:54.995Z,14.40
2022-08-22T23:21:28.896Z,14.40
2022-08-22T23:26:31.674Z,14.30
2022-08-22T23:44:16.152Z,13.90
2022-08-22T23:46:46.862Z,13.40
2022-08-22T23:54:17.956Z,14.00
2022-08-22T23:56:50.393Z,14.10
2022-08-22T23:59:30.561Z,13.90
